createdAt,value
2023-01-17T00:01:37.158Z,14.50
2023-01-17T00:04:22.810Z,14.10
2023-01-17T00:07:08.232Z,11.40
2023-01-17T00:09:53.547Z,13.23
2023-01-17T00:12:21.186Z,12.55
2023-01-17T00:14:48.530Z,12.43
2023-01-17T00:17:15.914Z,13.20
2023-01-17T00:20:01.373Z,12.15
2023-01-17T00:22:48.480Z,17.92
2023-01-17T00:25:38.740Z,12.38
2023-01-17T00:28:05.813Z,12.48
2023-01-17T00:30:32.878Z,10.40
2023-01-17T00:32:59.938Z,12.85
2023-01-17T00:35:27.821Z,11.95
2023-01-17T00:38:07.628Z,13.60
2023-01-17T00:40:35.530Z,12.52
2023-01-17T00:43:21.370Z,11.32
2023-01-17T00:46:06.816Z,13.30
2023-01-17T00:48:52.175Z,11.52
2023-01-17T00:51:37.765Z,10.88
2023-01-17T00:54:23.731Z,12.23
2023-01-17T00:57:09.519Z,12.25
2023-01-17T00:59:54.869Z,11.77
2023-01-17T01:02:40.779Z,12.52
2023-01-17T01:05:26.262Z,13.15
2023-01-17T01:08:12.130Z,11.05
2023-01-17T01:10:57.990Z,13.25
2023-01-17T01:13:47.209Z,11.65
2023-01-17T01:16:33.044Z,11.02
2023-01-17T01:19:18.409Z,11.82
2023-01-17T01:22:03.711Z,11.00
2023-01-17T01:24:49.261Z,11.68
2023-01-17T01:27:34.621Z,11.52
2023-01-17T01:30:20.138Z,10.70
2023-01-17T01:33:05.664Z,10.85
2023-01-17T01:35:32.769Z,11.15
2023-01-17T01:37:59.697Z,12.25
2023-01-17T01:40:26.607Z,10.90
2023-01-17T01:42:58.150Z,9.65
2023-01-17T01:45:29.846Z,9.98
2023-01-17T01:48:12.872Z,10.45
2023-01-17T01:50:39.808Z,10.18
2023-01-17T01:53:06.743Z,10.50
2023-01-17T01:55:35.178Z,10.43
2023-01-17T01:58:10.750Z,9.10
2023-01-17T02:00:38.652Z,11.30
2023-01-17T02:03:08.099Z,11.45
2023-01-17T02:05:35.100Z,11.90
2023-01-17T02:08:07.764Z,15.07
2023-01-17T02:10:35.477Z,11.23
2023-01-17T02:13:02.605Z,13.38
2023-01-17T02:15:39.929Z,16.83
2023-01-17T02:18:12.671Z,16.80
2023-01-17T02:27:28.797Z,18.50
2023-01-17T02:30:47.401Z,17.55
2023-01-17T02:33:38.009Z,16.80
2023-01-17T02:36:15.130Z,16.08
2023-01-17T02:38:57.576Z,16.65
2023-01-17T02:41:37.245Z,17.73
2023-01-17T02:44:04.234Z,19.80
2023-01-17T02:46:31.191Z,18.73
2023-01-17T02:48:58.360Z,15.07
2023-01-17T02:51:46.279Z,15.18
2023-01-17T02:54:22.130Z,14.27
2023-01-17T02:57:00.336Z,10.48
2023-01-17T02:59:34.834Z,12.53
2023-01-17T03:02:31.221Z,13.25
2023-01-17T03:04:58.189Z,10.35
2023-01-17T03:07:26.268Z,10.77
2023-01-17T03:09:59.208Z,9.20
2023-01-17T03:12:29.827Z,12.38
2023-01-17T03:14:56.869Z,9.00
2023-01-17T03:17:29.448Z,9.38
2023-01-17T03:19:56.369Z,9.32
2023-01-17T03:22:23.343Z,7.75
2023-01-17T03:24:50.549Z,9.98
2023-01-17T03:27:17.544Z,9.00
2023-01-17T03:29:44.420Z,9.37
2023-01-17T03:32:11.294Z,8.32
2023-01-17T03:34:38.206Z,8.60
2023-01-17T03:37:05.092Z,9.75
2023-01-17T03:39:32.119Z,8.38
2023-01-17T03:41:59.067Z,8.02
2023-01-17T03:44:25.968Z,7.97
2023-01-17T03:46:52.865Z,6.85
2023-01-17T03:49:19.887Z,8.55
2023-01-17T03:51:46.788Z,7.82
2023-01-17T03:54:13.760Z,9.05
2023-01-17T03:56:40.697Z,8.68
2023-01-17T03:59:07.770Z,8.50
2023-01-17T04:01:34.784Z,8.73
2023-01-17T04:04:01.740Z,9.60
2023-01-17T04:06:28.660Z,8.70
2023-01-17T04:08:55.590Z,7.57
2023-01-17T04:11:22.467Z,8.43
2023-01-17T04:13:49.474Z,10.32
2023-01-17T04:16:17.475Z,8.95
2023-01-17T04:18:45.100Z,8.90
2023-01-17T04:21:12.044Z,7.50
2023-01-17T04:23:39.036Z,7.95
2023-01-17T04:26:05.989Z,9.15
2023-01-17T04:28:33.078Z,8.75
2023-01-17T04:31:00.355Z,7.72
2023-01-17T04:33:27.365Z,8.30
2023-01-17T04:35:54.455Z,13.63
2023-01-17T04:38:21.914Z,10.25
2023-01-17T04:40:49.124Z,9.27
2023-01-17T04:43:17.008Z,13.53
2023-01-17T04:45:43.937Z,15.00
2023-01-17T04:48:12.804Z,15.67
2023-01-17T04:50:39.950Z,16.90
2023-01-17T04:53:07.180Z,18.90
2023-01-17T04:55:34.112Z,15.75
2023-01-17T04:58:01.232Z,17.67
2023-01-17T05:00:28.243Z,16.17
2023-01-17T05:02:55.247Z,14.60
2023-01-17T05:05:22.211Z,14.10
2023-01-17T05:07:58.413Z,11.43
2023-01-17T05:10:25.489Z,12.65
2023-01-17T05:12:59.056Z,11.27
2023-01-17T05:15:26.409Z,9.97
2023-01-17T05:17:53.549Z,12.20
2023-01-17T05:20:21.676Z,12.23
2023-01-17T05:22:58.137Z,10.47
2023-01-17T05:25:26.269Z,10.33
2023-01-17T05:27:53.412Z,12.60
2023-01-17T05:30:20.595Z,16.03
2023-01-17T05:32:51.469Z,17.20
2023-01-17T05:35:22.198Z,19.40
2023-01-17T05:37:50.470Z,16.33
2023-01-17T05:40:18.200Z,18.47
2023-01-17T05:42:52.761Z,13.23
2023-01-17T05:45:20.409Z,15.17
2023-01-17T05:47:48.681Z,13.83
2023-01-17T05:50:20.733Z,14.60
2023-01-17T05:52:58.336Z,13.47
2023-01-17T05:55:25.575Z,16.97
2023-01-17T05:57:53.306Z,15.20
2023-01-17T06:00:20.727Z,18.47
2023-01-17T06:02:47.869Z,18.47
2023-01-17T06:05:15.163Z,12.80
2023-01-17T06:07:45.769Z,13.07
2023-01-17T06:10:14.555Z,15.40
2023-01-17T06:12:45.086Z,13.13
2023-01-17T06:15:12.630Z,14.33
2023-01-17T06:17:42.987Z,14.70
2023-01-17T06:20:11.063Z,13.63
2023-01-17T06:22:38.023Z,10.70
2023-01-17T06:25:05.457Z,14.87
2023-01-17T06:27:32.480Z,13.67
2023-01-17T06:29:59.480Z,12.67
2023-01-17T06:32:26.643Z,10.33
2023-01-17T06:34:53.560Z,10.00
2023-01-17T06:37:20.465Z,10.03
2023-01-17T06:39:47.505Z,10.30
2023-01-17T06:42:14.555Z,10.80
2023-01-17T06:44:41.573Z,9.83
2023-01-17T06:47:08.465Z,10.10
2023-01-17T06:49:35.405Z,13.07
2023-01-17T06:52:02.357Z,11.13
2023-01-17T06:54:29.350Z,13.93
2023-01-17T06:56:56.352Z,11.70
2023-01-17T06:59:23.302Z,8.97
2023-01-17T07:01:50.283Z,10.80
2023-01-17T07:04:17.482Z,11.57
2023-01-17T07:06:44.641Z,10.77
2023-01-17T07:09:11.589Z,11.23
2023-01-17T07:11:38.769Z,12.53
2023-01-17T07:14:05.827Z,11.17
2023-01-17T07:16:34.078Z,11.97
2023-01-17T07:19:01.104Z,9.70
2023-01-17T07:21:28.097Z,10.00
2023-01-17T07:23:55.639Z,11.43
2023-01-17T07:26:22.651Z,11.17
2023-01-17T07:28:49.708Z,9.93
2023-01-17T07:31:16.765Z,11.20
2023-01-17T07:33:43.722Z,10.47
2023-01-17T07:36:10.999Z,10.33
2023-01-17T07:38:37.961Z,10.57
2023-01-17T07:41:05.104Z,9.10
2023-01-17T07:43:32.037Z,9.00
2023-01-17T07:46:01.341Z,13.40
2023-01-17T07:48:29.083Z,9.47
2023-01-17T07:50:56.858Z,10.17
2023-01-17T07:53:25.175Z,10.70
2023-01-17T07:55:52.244Z,8.53
2023-01-17T07:58:19.369Z,10.93
2023-01-17T08:00:46.460Z,11.97
2023-01-17T08:03:15.341Z,10.20
2023-01-17T08:05:43.016Z,10.23
2023-01-17T08:08:10.002Z,9.43
2023-01-17T08:10:37.043Z,13.63
2023-01-17T08:13:04.047Z,9.77
2023-01-17T08:15:31.002Z,9.17
2023-01-17T08:17:58.676Z,8.80
2023-01-17T08:20:27.804Z,10.13
2023-01-17T08:22:58.126Z,10.30
2023-01-17T08:25:25.297Z,11.33
2023-01-17T08:27:55.010Z,14.80
2023-01-17T08:30:22.620Z,10.30
2023-01-17T08:32:49.792Z,10.13
2023-01-17T08:35:16.757Z,12.80
2023-01-17T08:37:43.702Z,10.90
2023-01-17T08:40:11.333Z,11.93
2023-01-17T08:42:40.381Z,10.93
2023-01-17T08:45:08.271Z,9.33
2023-01-17T08:47:35.362Z,10.93
2023-01-17T08:50:02.557Z,14.10
2023-01-17T08:52:29.719Z,10.80
2023-01-17T08:54:56.656Z,9.63
2023-01-17T08:57:23.604Z,13.98
2023-01-17T08:59:50.550Z,11.48
2023-01-17T09:02:18.516Z,11.45
2023-01-17T09:04:46.664Z,11.90
2023-01-17T09:07:14.368Z,10.77
2023-01-17T09:09:41.380Z,11.57
2023-01-17T09:12:08.541Z,11.25
2023-01-17T09:14:35.844Z,10.90
2023-01-17T09:17:02.873Z,10.82
2023-01-17T09:19:29.918Z,11.70
2023-01-17T09:21:56.956Z,11.75
2023-01-17T09:24:23.891Z,13.68
2023-01-17T09:26:50.854Z,12.05
2023-01-17T09:29:18.770Z,13.63
2023-01-17T09:31:48.437Z,11.57
2023-01-17T09:34:15.560Z,12.05
2023-01-17T09:36:42.552Z,12.00
2023-01-17T09:39:10.309Z,14.20
2023-01-17T09:41:44.966Z,18.02
2023-01-17T09:44:53.627Z,15.30
2023-01-17T09:47:32.525Z,15.50
2023-01-17T09:50:20.399Z,15.35
2023-01-17T09:52:47.376Z,13.50
2023-01-17T09:55:15.505Z,14.07
2023-01-17T09:57:45.419Z,14.65
2023-01-17T10:00:36.513Z,12.73
2023-01-17T10:03:15.002Z,13.52
2023-01-17T10:06:03.264Z,16.20
2023-01-17T10:08:55.301Z,12.68
2023-01-17T10:11:53.449Z,15.93
2023-01-17T10:14:40.807Z,14.63
2023-01-17T10:17:30.098Z,14.60
2023-01-17T10:20:34.393Z,13.15
2023-01-17T10:23:35.434Z,14.93
2023-01-17T10:26:08.233Z,21.15
2023-01-17T10:28:51.153Z,14.57
2023-01-17T10:31:26.033Z,19.00
2023-01-17T10:34:18.514Z,19.48
2023-01-17T10:36:47.995Z,19.48
2023-01-17T10:39:24.967Z,21.55
2023-01-17T10:41:59.770Z,18.60
2023-01-17T10:44:39.729Z,24.67
2023-01-17T10:47:24.187Z,22.00
2023-01-17T10:49:56.688Z,21.60
2023-01-17T10:52:43.469Z,20.30
2023-01-17T10:55:28.962Z,23.10
2023-01-17T10:57:55.947Z,20.20
2023-01-17T11:00:34.206Z,19.67
2023-01-17T11:03:01.325Z,21.15
2023-01-17T11:05:30.248Z,21.25
2023-01-17T11:08:04.603Z,19.00
2023-01-17T11:10:40.576Z,19.73
2023-01-17T11:13:22.684Z,19.30
2023-01-17T11:15:51.241Z,19.48
2023-01-17T11:18:19.546Z,20.08
2023-01-17T11:20:46.596Z,18.90
2023-01-17T11:23:32.429Z,18.52
2023-01-17T11:26:02.788Z,19.33
2023-01-17T11:28:34.415Z,18.40
2023-01-17T11:31:04.328Z,19.92
2023-01-17T11:33:46.059Z,18.20
2023-01-17T11:36:27.536Z,18.50
2023-01-17T11:39:05.201Z,19.30
2023-01-17T11:41:39.916Z,20.92
2023-01-17T11:44:28.908Z,19.42
2023-01-17T11:47:14.088Z,19.42
2023-01-17T11:49:42.242Z,20.48
2023-01-17T11:52:18.375Z,19.38
2023-01-17T11:54:46.809Z,18.58
2023-01-17T11:57:43.264Z,19.42
2023-01-17T12:00:46.551Z,18.23
2023-01-17T12:03:16.999Z,17.40
2023-01-17T12:05:48.223Z,20.98
2023-01-17T12:08:37.341Z,18.33
2023-01-17T12:11:10.979Z,19.45
2023-01-17T12:14:09.122Z,18.23
2023-01-17T12:16:45.409Z,18.23
2023-01-17T12:19:39.000Z,17.67
2023-01-17T12:22:09.051Z,18.73
2023-01-17T12:24:58.480Z,17.80
2023-01-17T12:27:34.709Z,18.58
2023-01-17T12:30:20.591Z,19.10
2023-01-17T12:33:24.729Z,19.05
2023-01-17T12:36:08.932Z,17.45
2023-01-17T12:38:37.006Z,17.88
2023-01-17T12:41:19.371Z,19.67
2023-01-17T12:43:46.413Z,15.88
2023-01-17T12:46:33.774Z,20.63
2023-01-17T12:49:15.493Z,16.08
2023-01-17T12:51:43.349Z,14.93
2023-01-17T12:54:19.124Z,17.15
2023-01-17T12:56:57.001Z,14.70
2023-01-17T12:59:32.695Z,15.02
2023-01-17T13:02:01.198Z,16.00
2023-01-17T13:04:46.879Z,16.98
2023-01-17T13:07:42.609Z,18.23
2023-01-17T13:10:24.693Z,16.88
2023-01-17T13:12:53.276Z,19.65
2023-01-17T13:15:23.423Z,18.30
2023-01-17T13:17:53.231Z,16.88
2023-01-17T13:20:22.827Z,20.63
2023-01-17T13:22:50.219Z,21.20
2023-01-17T13:25:44.945Z,21.48
2023-01-17T13:28:21.250Z,23.15
2023-01-17T13:31:11.288Z,23.08
2023-01-17T13:33:53.736Z,22.15
2023-01-17T13:36:25.488Z,21.23
2023-01-17T13:39:01.190Z,23.52
2023-01-17T13:41:34.222Z,20.02
2023-01-17T13:44:19.433Z,24.33
2023-01-17T13:47:10.551Z,21.02
2023-01-17T13:49:49.487Z,23.80
2023-01-17T13:52:19.459Z,32.28
2023-01-17T13:55:01.476Z,25.30
2023-01-17T13:57:30.345Z,26.50
2023-01-17T13:59:58.283Z,23.15
2023-01-17T14:02:37.475Z,24.88
2023-01-17T14:05:29.027Z,22.88
2023-01-17T14:08:00.498Z,26.08
2023-01-17T14:10:34.294Z,23.60
2023-01-17T14:13:01.963Z,24.70
2023-01-17T14:15:29.890Z,25.70
2023-01-17T14:18:04.202Z,22.65
2023-01-17T14:20:39.621Z,22.42
2023-01-17T14:23:56.193Z,23.98
2023-01-17T14:26:34.740Z,25.77
2023-01-17T14:29:40.247Z,23.13
2023-01-17T14:32:12.875Z,24.10
2023-01-17T14:34:39.920Z,25.60
2023-01-17T14:37:30.265Z,23.77
2023-01-17T14:39:57.262Z,23.35
2023-01-17T14:42:25.044Z,26.63
2023-01-17T14:45:08.572Z,24.20
2023-01-17T14:47:38.103Z,22.20
2023-01-17T14:50:28.715Z,23.23
2023-01-17T14:53:10.824Z,26.70
2023-01-17T14:58:04.944Z,23.08
2023-01-17T15:00:35.070Z,23.40
2023-01-17T15:03:02.369Z,22.70
2023-01-17T15:05:30.305Z,23.52
2023-01-17T15:07:58.090Z,24.25
2023-01-17T15:10:32.064Z,22.52
2023-01-17T15:13:05.985Z,21.63
2023-01-17T15:15:39.923Z,23.48
2023-01-17T15:18:19.402Z,22.42
2023-01-17T15:21:00.326Z,21.95
2023-01-17T15:23:31.715Z,22.42
2023-01-17T15:25:58.803Z,24.00
2023-01-17T15:28:25.787Z,22.58
2023-01-17T15:31:09.239Z,24.85
2023-01-17T15:33:41.330Z,21.48
2023-01-17T15:38:39.285Z,23.00
2023-01-17T15:41:16.114Z,21.90
2023-01-17T15:43:43.462Z,23.88
2023-01-17T15:46:21.555Z,19.83
2023-01-17T15:48:49.013Z,19.08
2023-01-17T15:51:17.495Z,21.35
2023-01-17T15:53:44.449Z,17.88
2023-01-17T15:56:34.240Z,19.42
2023-01-17T15:59:27.604Z,17.35
2023-01-17T16:01:56.118Z,21.92
2023-01-17T16:04:27.839Z,22.17
2023-01-17T16:06:54.820Z,19.52
2023-01-17T16:09:22.581Z,20.92
2023-01-17T16:11:49.654Z,20.42
2023-01-17T16:14:17.716Z,20.33
2023-01-17T16:16:52.230Z,22.83
2023-01-17T16:19:19.198Z,21.83
2023-01-17T16:21:48.450Z,24.92
2023-01-17T16:24:15.577Z,22.30
2023-01-17T16:26:42.743Z,25.08
2023-01-17T16:29:10.212Z,22.67
2023-01-17T16:31:37.336Z,23.65
2023-01-17T16:34:09.752Z,23.95
2023-01-17T16:36:36.978Z,24.20
2023-01-17T16:39:03.993Z,25.60
2023-01-17T16:41:30.990Z,24.67
2023-01-17T16:44:00.053Z,26.92
2023-01-17T16:46:27.968Z,25.27
2023-01-17T16:48:55.258Z,26.40
2023-01-17T16:51:22.769Z,26.27
2023-01-17T16:53:49.835Z,24.85
2023-01-17T16:56:17.849Z,24.42
2023-01-17T16:58:44.867Z,22.00
2023-01-17T17:01:16.195Z,23.20
2023-01-17T17:03:43.653Z,23.60
2023-01-17T17:06:10.951Z,25.23
2023-01-17T17:08:38.317Z,24.20
2023-01-17T17:11:17.467Z,25.50
2023-01-17T17:13:45.506Z,26.90
2023-01-17T17:16:23.561Z,24.52
2023-01-17T17:18:55.612Z,27.35
2023-01-17T17:21:22.632Z,27.15
2023-01-17T17:23:56.959Z,24.80
2023-01-17T17:26:26.853Z,26.05
2023-01-17T17:28:54.532Z,27.38
2023-01-17T17:31:21.502Z,24.77
2023-01-17T17:33:48.731Z,25.15
2023-01-17T17:36:15.683Z,26.05
2023-01-17T17:38:51.103Z,26.83
2023-01-17T17:41:29.392Z,29.27
2023-01-17T17:43:56.441Z,25.50
2023-01-17T17:46:24.773Z,25.40
2023-01-17T17:48:51.653Z,25.45
2023-01-17T17:51:25.393Z,24.80
2023-01-17T17:53:53.219Z,25.02
2023-01-17T17:56:20.622Z,27.13
2023-01-17T17:58:48.328Z,24.60
2023-01-17T18:01:15.513Z,28.90
2023-01-17T18:03:42.726Z,25.13
2023-01-17T18:06:10.935Z,24.58
2023-01-17T18:08:38.104Z,23.52
2023-01-17T18:11:07.331Z,27.65
2023-01-17T18:13:34.346Z,22.70
2023-01-17T18:16:07.793Z,23.10
2023-01-17T18:18:39.776Z,23.88
2023-01-17T18:21:13.879Z,27.67
2023-01-17T18:23:42.333Z,30.30
2023-01-17T18:26:17.115Z,28.25
2023-01-17T18:28:44.168Z,24.63
2023-01-17T18:31:11.445Z,28.45
2023-01-17T18:33:39.775Z,31.92
2023-01-17T18:36:07.973Z,31.35
2023-01-17T18:38:42.538Z,30.67
2023-01-17T18:41:10.893Z,27.92
2023-01-17T18:43:37.942Z,28.60
2023-01-17T18:46:05.433Z,24.17
2023-01-17T18:48:32.578Z,30.58
2023-01-17T18:51:06.985Z,27.98
2023-01-17T18:53:34.727Z,26.77
2023-01-17T18:56:02.905Z,29.65
2023-01-17T18:58:31.281Z,28.27
2023-01-17T19:01:10.765Z,27.13
2023-01-17T19:03:38.180Z,29.50
2023-01-17T19:06:05.985Z,26.42
2023-01-17T19:08:33.626Z,26.42
2023-01-17T19:11:00.770Z,27.42
2023-01-17T19:13:27.739Z,27.75
2023-01-17T19:15:54.707Z,27.52
2023-01-17T19:18:21.770Z,30.15
2023-01-17T19:20:48.733Z,29.63
2023-01-17T19:23:15.705Z,29.20
2023-01-17T19:25:42.657Z,28.40
2023-01-17T19:28:09.941Z,29.25
2023-01-17T19:30:40.017Z,28.27
2023-01-17T19:33:06.965Z,28.48
2023-01-17T19:35:33.850Z,29.60
2023-01-17T19:38:00.917Z,29.33
2023-01-17T19:40:27.870Z,28.10
2023-01-17T19:42:55.700Z,30.25
2023-01-17T19:45:22.775Z,30.48
2023-01-17T19:47:49.715Z,30.25
2023-01-17T19:50:18.777Z,27.23
2023-01-17T19:52:45.848Z,31.00
2023-01-17T19:55:12.830Z,32.42
2023-01-17T19:57:40.553Z,31.75
2023-01-17T20:00:09.055Z,30.08
2023-01-17T20:02:39.442Z,28.10
2023-01-17T20:05:06.949Z,28.10
2023-01-17T20:07:34.086Z,30.10
2023-01-17T20:10:01.089Z,29.75
2023-01-17T20:12:28.069Z,28.50
2023-01-17T20:14:55.031Z,32.97
2023-01-17T20:17:21.989Z,28.95
2023-01-17T20:19:49.144Z,30.95
2023-01-17T20:22:16.131Z,30.17
2023-01-17T20:24:43.126Z,29.45
2023-01-17T20:27:10.071Z,28.35
2023-01-17T20:29:40.670Z,30.73
2023-01-17T20:32:08.066Z,28.35
2023-01-17T20:34:35.064Z,31.23
2023-01-17T20:37:02.320Z,33.78
2023-01-17T20:39:29.405Z,30.40
2023-01-17T20:41:56.440Z,29.58
2023-01-17T20:44:24.091Z,30.55
2023-01-17T20:46:51.067Z,28.08
2023-01-17T20:49:19.227Z,27.50
2023-01-17T20:51:46.451Z,26.85
2023-01-17T20:54:15.145Z,29.05
2023-01-17T20:56:42.848Z,27.88
2023-01-17T20:59:12.811Z,25.77
2023-01-17T21:01:40.052Z,26.52
2023-01-17T21:04:10.146Z,29.27
2023-01-17T21:06:38.760Z,30.58
2023-01-17T21:09:07.295Z,29.38
2023-01-17T21:11:34.427Z,28.33
2023-01-17T21:14:01.750Z,24.67
2023-01-17T21:16:29.070Z,29.23
2023-01-17T21:18:56.244Z,24.33
2023-01-17T21:21:26.915Z,28.83
2023-01-17T21:23:55.093Z,24.40
2023-01-17T21:26:22.471Z,27.13
2023-01-17T21:28:50.889Z,25.60
2023-01-17T21:31:25.945Z,25.30
2023-01-17T21:34:03.942Z,23.83
2023-01-17T21:36:33.265Z,26.00
2023-01-17T21:39:04.252Z,28.50
2023-01-17T21:41:33.679Z,28.17
2023-01-17T21:44:02.232Z,24.85
2023-01-17T21:46:29.393Z,27.35
2023-01-17T21:48:59.244Z,25.73
2023-01-17T21:51:46.292Z,25.20
2023-01-17T21:54:13.452Z,27.23
2023-01-17T21:56:58.787Z,26.48
2023-01-17T21:59:25.849Z,25.63
2023-01-17T22:01:52.798Z,25.30
2023-01-17T22:04:20.062Z,23.10
2023-01-17T22:06:46.996Z,22.80
2023-01-17T22:09:15.178Z,24.58
2023-01-17T22:11:42.191Z,21.67
2023-01-17T22:14:09.157Z,25.88
2023-01-17T22:16:36.155Z,24.35
2023-01-17T22:19:03.032Z,23.58
2023-01-17T22:21:30.063Z,26.42
2023-01-17T22:23:58.556Z,23.08
2023-01-17T22:26:30.169Z,24.42
2023-01-17T22:28:59.915Z,27.15
2023-01-17T22:31:27.676Z,24.58
2023-01-17T22:33:55.476Z,27.77
2023-01-17T22:36:22.693Z,23.00
2023-01-17T22:38:49.867Z,21.80
2023-01-17T22:41:20.108Z,22.90
2023-01-17T22:43:51.877Z,22.30
2023-01-17T22:46:23.472Z,24.23
2023-01-17T22:48:50.675Z,21.88
2023-01-17T22:51:18.194Z,21.23
2023-01-17T22:53:50.127Z,21.55
2023-01-17T22:58:45.191Z,24.02
2023-01-17T23:01:13.686Z,23.55
2023-01-17T23:03:41.133Z,21.30
2023-01-17T23:06:09.440Z,23.40
2023-01-17T23:08:37.235Z,19.77
2023-01-17T23:11:33.032Z,20.55
2023-01-17T23:14:00.026Z,17.30
2023-01-17T23:16:45.855Z,18.60
2023-01-17T23:19:24.679Z,16.98
2023-01-17T23:22:15.076Z,18.45
2023-01-17T23:24:43.352Z,17.00
2023-01-17T23:27:42.080Z,16.48
2023-01-17T23:30:10.831Z,16.20
2023-01-17T23:32:58.001Z,17.73
2023-01-17T23:35:29.890Z,15.07
2023-01-17T23:38:15.243Z,15.85
2023-01-17T23:40:42.438Z,16.27
2023-01-17T23:43:25.415Z,17.80
2023-01-17T23:45:53.153Z,16.50
2023-01-17T23:48:21.035Z,17.00
2023-01-17T23:50:48.312Z,17.38
2023-01-17T23:53:22.295Z,18.10
2023-01-17T23:55:53.945Z,17.65
2023-01-17T23:58:22.363Z,16.17
